sensor_id;sensor_type;location;lat;lon;timestamp;temperature;humidity
16267;DHT22;8241;48.786;9.250;2023-07-24T00:00:24;21.40;93.30
16267;DHT22;8241;48.786;9.250;2023-07-24T00:02:52;21.40;93.20
16267;DHT22;8241;48.786;9.250;2023-07-24T00:05:21;21.40;93.30
16267;DHT22;8241;48.786;9.250;2023-07-24T00:07:48;21.40;92.70
16267;DHT22;8241;48.786;9.250;2023-07-24T00:10:14;21.40;92.70
16267;DHT22;8241;48.786;9.250;2023-07-24T00:12:41;21.30;93.10
16267;DHT22;8241;48.786;9.250;2023-07-24T00:15:08;21.30;93.70
16267;DHT22;8241;48.786;9.250;2023-07-24T00:17:35;21.30;94.10
16267;DHT22;8241;48.786;9.250;2023-07-24T00:20:03;21.30;94.50
16267;DHT22;8241;48.786;9.250;2023-07-24T00:22:31;21.20;94.50
16267;DHT22;8241;48.786;9.250;2023-07-24T00:24:58;21.10;94.60
16267;DHT22;8241;48.786;9.250;2023-07-24T00:27:25;21.10;94.70
16267;DHT22;8241;48.786;9.250;2023-07-24T00:29:53;21.10;95.60
16267;DHT22;8241;48.786;9.250;2023-07-24T00:32:20;21.10;96.70
16267;DHT22;8241;48.786;9.250;2023-07-24T00:34:47;21.00;96.70
16267;DHT22;8241;48.786;9.250;2023-07-24T00:37:15;20.90;97.20
16267;DHT22;8241;48.786;9.250;2023-07-24T00:39:42;20.80;98.00
16267;DHT22;8241;48.786;9.250;2023-07-24T00:42:09;20.50;97.20
16267;DHT22;8241;48.786;9.250;2023-07-24T00:44:35;20.50;96.60
16267;DHT22;8241;48.786;9.250;2023-07-24T00:47:04;20.40;97.60
16267;DHT22;8241;48.786;9.250;2023-07-24T00:49:31;20.30;97.90
16267;DHT22;8241;48.786;9.250;2023-07-24T00:51:58;20.30;98.20
16267;DHT22;8241;48.786;9.250;2023-07-24T00:54:27;20.30;98.50
16267;DHT22;8241;48.786;9.250;2023-07-24T00:56:56;20.30;99.30
16267;DHT22;8241;48.786;9.250;2023-07-24T00:59:23;20.30;99.30
16267;DHT22;8241;48.786;9.250;2023-07-24T01:01:50;20.30;99.30
16267;DHT22;8241;48.786;9.250;2023-07-24T01:04:18;20.30;99.60
16267;DHT22;8241;48.786;9.250;2023-07-24T01:06:48;20.40;98.80
16267;DHT22;8241;48.786;9.250;2023-07-24T01:09:14;20.40;98.40
16267;DHT22;8241;48.786;9.250;2023-07-24T01:11:46;20.40;98.80
16267;DHT22;8241;48.786;9.250;2023-07-24T01:14:19;20.40;98.10
16267;DHT22;8241;48.786;9.250;2023-07-24T01:16:48;20.40;98.50
16267;DHT22;8241;48.786;9.250;2023-07-24T01:19:20;20.40;98.00
16267;DHT22;8241;48.786;9.250;2023-07-24T01:22:01;20.30;97.60
16267;DHT22;8241;48.786;9.250;2023-07-24T01:24:33;20.30;98.10
16267;DHT22;8241;48.786;9.250;2023-07-24T01:27:04;20.30;97.90
16267;DHT22;8241;48.786;9.250;2023-07-24T01:29:33;20.30;97.90
16267;DHT22;8241;48.786;9.250;2023-07-24T01:32:00;20.30;97.10
16267;DHT22;8241;48.786;9.250;2023-07-24T01:34:27;20.30;96.90
16267;DHT22;8241;48.786;9.250;2023-07-24T01:36:54;20.30;97.00
16267;DHT22;8241;48.786;9.250;2023-07-24T01:39:21;20.30;97.00
16267;DHT22;8241;48.786;9.250;2023-07-24T01:41:48;20.30;96.90
16267;DHT22;8241;48.786;9.250;2023-07-24T01:44:16;20.30;96.80
16267;DHT22;8241;48.786;9.250;2023-07-24T01:46:43;20.20;96.70
16267;DHT22;8241;48.786;9.250;2023-07-24T01:49:10;20.20;96.50
16267;DHT22;8241;48.786;9.250;2023-07-24T01:51:37;20.20;96.50
16267;DHT22;8241;48.786;9.250;2023-07-24T01:54:04;20.20;96.60
16267;DHT22;8241;48.786;9.250;2023-07-24T01:56:31;20.20;96.70
16267;DHT22;8241;48.786;9.250;2023-07-24T01:58:57;20.10;95.90
16267;DHT22;8241;48.786;9.250;2023-07-24T02:01:26;20.10;95.90
16267;DHT22;8241;48.786;9.250;2023-07-24T02:03:53;20.10;95.80
16267;DHT22;8241;48.786;9.250;2023-07-24T02:06:19;20.10;95.80
16267;DHT22;8241;48.786;9.250;2023-07-24T02:08:46;20.10;95.60
16267;DHT22;8241;48.786;9.250;2023-07-24T02:11:15;20.10;95.50
16267;DHT22;8241;48.786;9.250;2023-07-24T02:13:43;20.10;95.30
16267;DHT22;8241;48.786;9.250;2023-07-24T02:16:10;20.00;95.60
16267;DHT22;8241;48.786;9.250;2023-07-24T02:18:42;20.00;95.30
16267;DHT22;8241;48.786;9.250;2023-07-24T02:21:09;20.00;95.30
16267;DHT22;8241;48.786;9.250;2023-07-24T02:23:36;20.00;95.40
16267;DHT22;8241;48.786;9.250;2023-07-24T02:26:04;20.00;95.50
16267;DHT22;8241;48.786;9.250;2023-07-24T02:28:33;20.00;95.40
16267;DHT22;8241;48.786;9.250;2023-07-24T02:31:00;19.90;95.20
16267;DHT22;8241;48.786;9.250;2023-07-24T02:33:28;19.90;95.40
16267;DHT22;8241;48.786;9.250;2023-07-24T02:35:56;19.90;95.40
16267;DHT22;8241;48.786;9.250;2023-07-24T02:38:23;19.90;95.50
16267;DHT22;8241;48.786;9.250;2023-07-24T02:40:50;19.90;95.50
16267;DHT22;8241;48.786;9.250;2023-07-24T02:43:17;20.00;95.50
16267;DHT22;8241;48.786;9.250;2023-07-24T02:45:44;20.00;95.40
16267;DHT22;8241;48.786;9.250;2023-07-24T02:48:10;19.90;95.30
16267;DHT22;8241;48.786;9.250;2023-07-24T02:50:38;20.00;95.00
16267;DHT22;8241;48.786;9.250;2023-07-24T02:53:06;19.90;95.00
16267;DHT22;8241;48.786;9.250;2023-07-24T02:55:33;19.90;95.00
16267;DHT22;8241;48.786;9.250;2023-07-24T02:58:00;19.90;95.10
16267;DHT22;8241;48.786;9.250;2023-07-24T03:00:28;19.90;95.20
16267;DHT22;8241;48.786;9.250;2023-07-24T03:02:55;19.80;95.40
16267;DHT22;8241;48.786;9.250;2023-07-24T03:05:22;19.80;95.40
16267;DHT22;8241;48.786;9.250;2023-07-24T03:07:49;19.80;95.40
16267;DHT22;8241;48.786;9.250;2023-07-24T03:10:17;19.80;95.30
16267;DHT22;8241;48.786;9.250;2023-07-24T03:12:44;19.80;95.30
16267;DHT22;8241;48.786;9.250;2023-07-24T03:15:11;19.80;95.30
16267;DHT22;8241;48.786;9.250;2023-07-24T03:17:38;19.80;95.50
16267;DHT22;8241;48.786;9.250;2023-07-24T03:20:09;19.70;95.50
16267;DHT22;8241;48.786;9.250;2023-07-24T03:22:36;19.70;95.70
16267;DHT22;8241;48.786;9.250;2023-07-24T03:25:04;19.80;95.70
16267;DHT22;8241;48.786;9.250;2023-07-24T03:27:32;19.80;95.50
16267;DHT22;8241;48.786;9.250;2023-07-24T03:29:59;19.80;95.80
16267;DHT22;8241;48.786;9.250;2023-07-24T03:32:26;19.70;95.50
16267;DHT22;8241;48.786;9.250;2023-07-24T03:34:53;19.70;95.60
16267;DHT22;8241;48.786;9.250;2023-07-24T03:37:19;19.60;95.70
16267;DHT22;8241;48.786;9.250;2023-07-24T03:39:46;19.70;95.80
16267;DHT22;8241;48.786;9.250;2023-07-24T03:42:24;19.70;95.70
16267;DHT22;8241;48.786;9.250;2023-07-24T03:44:53;19.70;95.70
16267;DHT22;8241;48.786;9.250;2023-07-24T03:47:20;19.70;95.60
16267;DHT22;8241;48.786;9.250;2023-07-24T03:49:47;19.70;95.60
16267;DHT22;8241;48.786;9.250;2023-07-24T03:52:14;19.70;95.40
16267;DHT22;8241;48.786;9.250;2023-07-24T03:54:41;19.70;95.40
16267;DHT22;8241;48.786;9.250;2023-07-24T03:57:07;19.70;95.30
16267;DHT22;8241;48.786;9.250;2023-07-24T03:59:34;19.70;95.40
16267;DHT22;8241;48.786;9.250;2023-07-24T04:02:03;19.70;95.30
16267;DHT22;8241;48.786;9.250;2023-07-24T04:04:30;19.70;95.40
16267;DHT22;8241;48.786;9.250;2023-07-24T04:06:57;19.80;95.30
16267;DHT22;8241;48.786;9.250;2023-07-24T04:09:24;19.70;95.20
16267;DHT22;8241;48.786;9.250;2023-07-24T04:11:51;19.80;95.10
16267;DHT22;8241;48.786;9.250;2023-07-24T04:14:18;19.70;95.00
16267;DHT22;8241;48.786;9.250;2023-07-24T04:16:44;19.80;95.00
16267;DHT22;8241;48.786;9.250;2023-07-24T04:19:13;19.80;95.10
16267;DHT22;8241;48.786;9.250;2023-07-24T04:21:39;19.80;95.00
16267;DHT22;8241;48.786;9.250;2023-07-24T04:24:06;19.80;94.90
16267;DHT22;8241;48.786;9.250;2023-07-24T04:26:33;19.80;94.90
16267;DHT22;8241;48.786;9.250;2023-07-24T04:29:00;19.80;95.00
16267;DHT22;8241;48.786;9.250;2023-07-24T04:31:27;19.80;95.00
16267;DHT22;8241;48.786;9.250;2023-07-24T04:33:54;19.80;95.00
16267;DHT22;8241;48.786;9.250;2023-07-24T04:36:22;19.80;95.10
16267;DHT22;8241;48.786;9.250;2023-07-24T04:38:48;19.90;95.10
16267;DHT22;8241;48.786;9.250;2023-07-24T04:41:15;19.90;95.10
16267;DHT22;8241;48.786;9.250;2023-07-24T04:43:42;19.90;95.10
16267;DHT22;8241;48.786;9.250;2023-07-24T04:46:09;20.00;95.00
16267;DHT22;8241;48.786;9.250;2023-07-24T04:48:36;20.00;95.00
16267;DHT22;8241;48.786;9.250;2023-07-24T04:51:03;20.00;95.00
16267;DHT22;8241;48.786;9.250;2023-07-24T04:53:31;20.00;95.00
16267;DHT22;8241;48.786;9.250;2023-07-24T04:55:58;20.00;95.00
16267;DHT22;8241;48.786;9.250;2023-07-24T04:58:24;20.00;95.20
16267;DHT22;8241;48.786;9.250;2023-07-24T05:00:51;20.00;95.20
16267;DHT22;8241;48.786;9.250;2023-07-24T05:03:18;20.00;95.20
16267;DHT22;8241;48.786;9.250;2023-07-24T05:05:48;20.00;95.20
16267;DHT22;8241;48.786;9.250;2023-07-24T05:08:15;20.00;95.30
16267;DHT22;8241;48.786;9.250;2023-07-24T05:10:43;20.00;95.40
16267;DHT22;8241;48.786;9.250;2023-07-24T05:13:10;20.00;95.50
16267;DHT22;8241;48.786;9.250;2023-07-24T05:15:37;20.10;95.40
16267;DHT22;8241;48.786;9.250;2023-07-24T05:18:04;20.10;95.40
16267;DHT22;8241;48.786;9.250;2023-07-24T05:20:31;20.20;95.30
16267;DHT22;8241;48.786;9.250;2023-07-24T05:22:57;20.20;95.20
16267;DHT22;8241;48.786;9.250;2023-07-24T05:25:24;20.30;95.20
16267;DHT22;8241;48.786;9.250;2023-07-24T05:27:52;20.30;95.10
16267;DHT22;8241;48.786;9.250;2023-07-24T05:30:19;20.30;95.00
16267;DHT22;8241;48.786;9.250;2023-07-24T05:32:46;20.30;95.00
16267;DHT22;8241;48.786;9.250;2023-07-24T05:35:13;20.30;95.00
16267;DHT22;8241;48.786;9.250;2023-07-24T05:37:40;20.30;95.00
16267;DHT22;8241;48.786;9.250;2023-07-24T05:40:08;20.30;95.10
16267;DHT22;8241;48.786;9.250;2023-07-24T05:42:35;20.30;95.20
16267;DHT22;8241;48.786;9.250;2023-07-24T05:45:09;20.30;95.20
16267;DHT22;8241;48.786;9.250;2023-07-24T05:47:36;20.30;95.20
16267;DHT22;8241;48.786;9.250;2023-07-24T05:50:03;20.40;95.20
16267;DHT22;8241;48.786;9.250;2023-07-24T05:52:30;20.30;95.20
16267;DHT22;8241;48.786;9.250;2023-07-24T05:54:57;20.40;95.30
16267;DHT22;8241;48.786;9.250;2023-07-24T05:57:24;20.40;95.20
16267;DHT22;8241;48.786;9.250;2023-07-24T05:59:50;20.40;95.30
16267;DHT22;8241;48.786;9.250;2023-07-24T06:02:19;20.40;95.10
16267;DHT22;8241;48.786;9.250;2023-07-24T06:04:45;20.40;94.60
16267;DHT22;8241;48.786;9.250;2023-07-24T06:07:12;20.40;94.40
16267;DHT22;8241;48.786;9.250;2023-07-24T06:09:39;20.50;94.50
16267;DHT22;8241;48.786;9.250;2023-07-24T06:12:06;20.50;94.60
16267;DHT22;8241;48.786;9.250;2023-07-24T06:14:33;20.50;94.40
16267;DHT22;8241;48.786;9.250;2023-07-24T06:17:00;20.50;94.50
16267;DHT22;8241;48.786;9.250;2023-07-24T06:19:28;20.60;94.30
16267;DHT22;8241;48.786;9.250;2023-07-24T06:21:55;20.60;94.30
16267;DHT22;8241;48.786;9.250;2023-07-24T06:24:22;20.60;94.30
16267;DHT22;8241;48.786;9.250;2023-07-24T06:26:49;20.60;94.40
16267;DHT22;8241;48.786;9.250;2023-07-24T06:29:19;20.70;94.40
16267;DHT22;8241;48.786;9.250;2023-07-24T06:31:45;20.70;94.40
16267;DHT22;8241;48.786;9.250;2023-07-24T06:34:14;20.80;94.40
16267;DHT22;8241;48.786;9.250;2023-07-24T06:36:44;20.80;94.20
16267;DHT22;8241;48.786;9.250;2023-07-24T06:39:10;20.90;94.20
16267;DHT22;8241;48.786;9.250;2023-07-24T06:41:37;20.90;94.20
16267;DHT22;8241;48.786;9.250;2023-07-24T06:44:05;21.00;94.40
16267;DHT22;8241;48.786;9.250;2023-07-24T06:46:32;21.10;94.20
16267;DHT22;8241;48.786;9.250;2023-07-24T06:48:58;21.10;94.00
16267;DHT22;8241;48.786;9.250;2023-07-24T06:51:25;21.20;94.20
16267;DHT22;8241;48.786;9.250;2023-07-24T06:53:54;21.30;93.60
16267;DHT22;8241;48.786;9.250;2023-07-24T06:56:20;21.30;93.70
16267;DHT22;8241;48.786;9.250;2023-07-24T06:58:47;21.30;93.40
16267;DHT22;8241;48.786;9.250;2023-07-24T07:01:14;21.30;93.40
16267;DHT22;8241;48.786;9.250;2023-07-24T07:03:41;21.30;93.50
16267;DHT22;8241;48.786;9.250;2023-07-24T07:06:07;21.30;93.60
16267;DHT22;8241;48.786;9.250;2023-07-24T07:08:35;21.30;93.60
16267;DHT22;8241;48.786;9.250;2023-07-24T07:11:03;21.30;93.70
16267;DHT22;8241;48.786;9.250;2023-07-24T07:13:30;21.20;93.70
16267;DHT22;8241;48.786;9.250;2023-07-24T07:15:57;21.20;93.60
16267;DHT22;8241;48.786;9.250;2023-07-24T07:18:24;21.20;93.60
16267;DHT22;8241;48.786;9.250;2023-07-24T07:20:52;21.30;93.60
16267;DHT22;8241;48.786;9.250;2023-07-24T07:23:19;21.30;93.70
16267;DHT22;8241;48.786;9.250;2023-07-24T07:25:46;21.30;93.60
16267;DHT22;8241;48.786;9.250;2023-07-24T07:28:16;21.40;93.60
16267;DHT22;8241;48.786;9.250;2023-07-24T07:30:43;21.40;93.60
16267;DHT22;8241;48.786;9.250;2023-07-24T07:33:10;21.40;93.60
16267;DHT22;8241;48.786;9.250;2023-07-24T07:35:37;21.40;93.70
16267;DHT22;8241;48.786;9.250;2023-07-24T07:38:04;21.40;93.70
16267;DHT22;8241;48.786;9.250;2023-07-24T07:40:31;21.40;93.80
16267;DHT22;8241;48.786;9.250;2023-07-24T07:42:58;21.50;93.80
16267;DHT22;8241;48.786;9.250;2023-07-24T07:45:26;21.50;93.70
16267;DHT22;8241;48.786;9.250;2023-07-24T07:47:53;21.60;93.70
16267;DHT22;8241;48.786;9.250;2023-07-24T07:50:20;21.60;93.70
16267;DHT22;8241;48.786;9.250;2023-07-24T07:52:49;21.70;93.70
16267;DHT22;8241;48.786;9.250;2023-07-24T07:55:16;21.80;93.80
16267;DHT22;8241;48.786;9.250;2023-07-24T07:57:43;21.80;93.70
16267;DHT22;8241;48.786;9.250;2023-07-24T08:00:11;21.90;93.80
16267;DHT22;8241;48.786;9.250;2023-07-24T08:02:39;21.90;93.70
16267;DHT22;8241;48.786;9.250;2023-07-24T08:05:07;22.00;93.70
16267;DHT22;8241;48.786;9.250;2023-07-24T08:07:34;22.00;93.80
16267;DHT22;8241;48.786;9.250;2023-07-24T08:10:01;22.00;93.90
16267;DHT22;8241;48.786;9.250;2023-07-24T08:12:28;22.00;94.10
16267;DHT22;8241;48.786;9.250;2023-07-24T08:14:56;22.00;94.20
16267;DHT22;8241;48.786;9.250;2023-07-24T08:17:23;22.00;94.40
16267;DHT22;8241;48.786;9.250;2023-07-24T08:19:51;21.90;94.70
16267;DHT22;8241;48.786;9.250;2023-07-24T08:22:18;21.90;95.10
16267;DHT22;8241;48.786;9.250;2023-07-24T08:24:45;21.80;95.70
16267;DHT22;8241;48.786;9.250;2023-07-24T08:27:12;21.70;95.90
16267;DHT22;8241;48.786;9.250;2023-07-24T08:29:39;21.70;96.00
16267;DHT22;8241;48.786;9.250;2023-07-24T08:32:06;21.70;97.20
16267;DHT22;8241;48.786;9.250;2023-07-24T08:34:33;21.60;99.20
16267;DHT22;8241;48.786;9.250;2023-07-24T08:37:01;21.50;99.60
16267;DHT22;8241;48.786;9.250;2023-07-24T08:39:28;21.40;99.90
16267;DHT22;8241;48.786;9.250;2023-07-24T08:41:56;21.30;99.90
16267;DHT22;8241;48.786;9.250;2023-07-24T08:44:24;21.30;99.90
16267;DHT22;8241;48.786;9.250;2023-07-24T08:46:52;21.20;99.40
16267;DHT22;8241;48.786;9.250;2023-07-24T08:49:19;21.30;99.90
16267;DHT22;8241;48.786;9.250;2023-07-24T08:51:47;21.20;99.90
16267;DHT22;8241;48.786;9.250;2023-07-24T08:54:15;21.10;99.80
16267;DHT22;8241;48.786;9.250;2023-07-24T08:56:42;21.20;99.90
16267;DHT22;8241;48.786;9.250;2023-07-24T08:59:12;21.20;99.90
16267;DHT22;8241;48.786;9.250;2023-07-24T09:01:40;21.20;99.90
16267;DHT22;8241;48.786;9.250;2023-07-24T09:04:07;21.20;99.90
16267;DHT22;8241;48.786;9.250;2023-07-24T09:06:34;21.30;99.90
16267;DHT22;8241;48.786;9.250;2023-07-24T09:09:01;21.40;99.90
16267;DHT22;8241;48.786;9.250;2023-07-24T09:11:29;21.40;99.90
16267;DHT22;8241;48.786;9.250;2023-07-24T09:13:56;21.50;99.90
16267;DHT22;8241;48.786;9.250;2023-07-24T09:16:24;21.60;99.90
16267;DHT22;8241;48.786;9.250;2023-07-24T09:18:52;21.60;99.90
16267;DHT22;8241;48.786;9.250;2023-07-24T09:21:28;21.60;99.90
16267;DHT22;8241;48.786;9.250;2023-07-24T09:23:55;21.70;99.90
16267;DHT22;8241;48.786;9.250;2023-07-24T09:26:22;21.70;99.90
16267;DHT22;8241;48.786;9.250;2023-07-24T09:28:53;21.80;99.90
16267;DHT22;8241;48.786;9.250;2023-07-24T09:31:20;21.80;99.90
16267;DHT22;8241;48.786;9.250;2023-07-24T09:33:47;21.80;99.90
16267;DHT22;8241;48.786;9.250;2023-07-24T09:36:14;21.90;99.60
16267;DHT22;8241;48.786;9.250;2023-07-24T09:38:41;21.90;99.80
16267;DHT22;8241;48.786;9.250;2023-07-24T09:41:08;21.90;99.50
16267;DHT22;8241;48.786;9.250;2023-07-24T09:43:35;21.90;99.30
16267;DHT22;8241;48.786;9.250;2023-07-24T09:46:04;21.90;98.70
16267;DHT22;8241;48.786;9.250;2023-07-24T09:48:32;21.90;99.00
16267;DHT22;8241;48.786;9.250;2023-07-24T09:51:00;21.90;98.90
16267;DHT22;8241;48.786;9.250;2023-07-24T09:53:33;21.90;99.20
16267;DHT22;8241;48.786;9.250;2023-07-24T09:56:03;21.80;99.40
16267;DHT22;8241;48.786;9.250;2023-07-24T09:58:32;21.80;99.60
16267;DHT22;8241;48.786;9.250;2023-07-24T10:01:05;21.80;99.50
16267;DHT22;8241;48.786;9.250;2023-07-24T10:03:34;21.80;99.60
16267;DHT22;8241;48.786;9.250;2023-07-24T10:06:01;21.80;99.80
16267;DHT22;8241;48.786;9.250;2023-07-24T10:08:28;21.80;99.90
16267;DHT22;8241;48.786;9.250;2023-07-24T10:10:55;21.80;99.90
16267;DHT22;8241;48.786;9.250;2023-07-24T10:13:23;21.80;99.90
16267;DHT22;8241;48.786;9.250;2023-07-24T10:15:50;21.80;99.90
16267;DHT22;8241;48.786;9.250;2023-07-24T10:18:26;21.80;99.90
16267;DHT22;8241;48.786;9.250;2023-07-24T10:21:00;21.80;99.90
16267;DHT22;8241;48.786;9.250;2023-07-24T10:23:27;21.70;99.90
16267;DHT22;8241;48.786;9.250;2023-07-24T10:25:54;21.70;99.90
16267;DHT22;8241;48.786;9.250;2023-07-24T10:28:30;21.70;99.90
16267;DHT22;8241;48.786;9.250;2023-07-24T10:30:57;21.70;99.90
16267;DHT22;8241;48.786;9.250;2023-07-24T10:33:29;21.70;99.90
16267;DHT22;8241;48.786;9.250;2023-07-24T10:36:04;21.60;99.90
16267;DHT22;8241;48.786;9.250;2023-07-24T10:38:33;21.60;99.90
16267;DHT22;8241;48.786;9.250;2023-07-24T10:41:02;21.60;99.90
16267;DHT22;8241;48.786;9.250;2023-07-24T10:43:29;21.50;99.90
16267;DHT22;8241;48.786;9.250;2023-07-24T10:46:05;21.50;99.90
16267;DHT22;8241;48.786;9.250;2023-07-24T10:48:34;21.50;99.90
16267;DHT22;8241;48.786;9.250;2023-07-24T10:51:06;21.50;99.90
16267;DHT22;8241;48.786;9.250;2023-07-24T10:53:34;21.40;99.90
16267;DHT22;8241;48.786;9.250;2023-07-24T10:56:01;21.40;99.90
16267;DHT22;8241;48.786;9.250;2023-07-24T10:58:29;21.40;99.90
16267;DHT22;8241;48.786;9.250;2023-07-24T11:00:56;21.40;99.90
16267;DHT22;8241;48.786;9.250;2023-07-24T11:03:25;21.30;99.90
16267;DHT22;8241;48.786;9.250;2023-07-24T11:05:54;21.30;99.90
16267;DHT22;8241;48.786;9.250;2023-07-24T11:08:21;21.20;99.90
16267;DHT22;8241;48.786;9.250;2023-07-24T11:10:49;21.20;99.90
16267;DHT22;8241;48.786;9.250;2023-07-24T11:13:16;21.10;99.90
16267;DHT22;8241;48.786;9.250;2023-07-24T11:15:43;21.00;99.90
16267;DHT22;8241;48.786;9.250;2023-07-24T11:18:10;20.90;99.90
16267;DHT22;8241;48.786;9.250;2023-07-24T11:20:38;20.80;99.90
16267;DHT22;8241;48.786;9.250;2023-07-24T11:23:11;20.70;99.90
16267;DHT22;8241;48.786;9.250;2023-07-24T11:25:38;20.60;99.90
16267;DHT22;8241;48.786;9.250;2023-07-24T11:28:06;20.60;99.90
16267;DHT22;8241;48.786;9.250;2023-07-24T11:30:33;20.50;99.90
16267;DHT22;8241;48.786;9.250;2023-07-24T11:33:00;20.50;99.90
16267;DHT22;8241;48.786;9.250;2023-07-24T11:35:28;20.50;99.90
16267;DHT22;8241;48.786;9.250;2023-07-24T11:37:55;20.50;99.90
16267;DHT22;8241;48.786;9.250;2023-07-24T11:40:32;20.50;99.90
16267;DHT22;8241;48.786;9.250;2023-07-24T11:42:59;20.50;99.90
16267;DHT22;8241;48.786;9.250;2023-07-24T11:45:26;20.60;99.90
16267;DHT22;8241;48.786;9.250;2023-07-24T11:47:53;20.70;99.90
16267;DHT22;8241;48.786;9.250;2023-07-24T11:50:22;20.90;99.90
16267;DHT22;8241;48.786;9.250;2023-07-24T11:52:51;21.30;99.90
16267;DHT22;8241;48.786;9.250;2023-07-24T11:55:23;21.50;99.90
16267;DHT22;8241;48.786;9.250;2023-07-24T11:57:58;21.70;99.90
16267;DHT22;8241;48.786;9.250;2023-07-24T12:00:26;21.70;99.90
16267;DHT22;8241;48.786;9.250;2023-07-24T12:02:58;21.70;99.90
16267;DHT22;8241;48.786;9.250;2023-07-24T12:05:25;21.60;99.90
16267;DHT22;8241;48.786;9.250;2023-07-24T12:07:54;21.40;99.90
16267;DHT22;8241;48.786;9.250;2023-07-24T12:10:26;21.30;99.90
16267;DHT22;8241;48.786;9.250;2023-07-24T12:12:54;21.20;99.90
16267;DHT22;8241;48.786;9.250;2023-07-24T12:15:23;21.10;99.90
16267;DHT22;8241;48.786;9.250;2023-07-24T12:17:50;21.20;99.90
16267;DHT22;8241;48.786;9.250;2023-07-24T12:20:17;21.20;99.90
16267;DHT22;8241;48.786;9.250;2023-07-24T12:22:43;21.20;99.90
16267;DHT22;8241;48.786;9.250;2023-07-24T12:25:10;21.30;99.90
16267;DHT22;8241;48.786;9.250;2023-07-24T12:27:37;21.30;99.90
16267;DHT22;8241;48.786;9.250;2023-07-24T12:30:06;21.40;99.90
16267;DHT22;8241;48.786;9.250;2023-07-24T12:32:35;21.50;99.90
16267;DHT22;8241;48.786;9.250;2023-07-24T12:35:01;21.50;99.90
16267;DHT22;8241;48.786;9.250;2023-07-24T12:37:28;21.60;99.90
16267;DHT22;8241;48.786;9.250;2023-07-24T12:39:55;21.60;99.90
16267;DHT22;8241;48.786;9.250;2023-07-24T12:42:22;21.70;99.90
16267;DHT22;8241;48.786;9.250;2023-07-24T12:44:50;21.60;99.90
16267;DHT22;8241;48.786;9.250;2023-07-24T12:47:16;21.60;99.90
16267;DHT22;8241;48.786;9.250;2023-07-24T12:49:45;21.60;99.90
16267;DHT22;8241;48.786;9.250;2023-07-24T12:52:11;21.70;99.90
16267;DHT22;8241;48.786;9.250;2023-07-24T12:54:38;21.80;99.90
16267;DHT22;8241;48.786;9.250;2023-07-24T12:57:05;21.90;99.90
16267;DHT22;8241;48.786;9.250;2023-07-24T12:59:32;22.00;99.90
16267;DHT22;8241;48.786;9.250;2023-07-24T13:01:59;22.20;99.90
16267;DHT22;8241;48.786;9.250;2023-07-24T13:04:26;22.50;99.90
16267;DHT22;8241;48.786;9.250;2023-07-24T13:06:54;22.40;99.90
16267;DHT22;8241;48.786;9.250;2023-07-24T13:09:20;22.40;99.90
16267;DHT22;8241;48.786;9.250;2023-07-24T13:11:49;22.20;99.90
16267;DHT22;8241;48.786;9.250;2023-07-24T13:14:17;22.20;99.90
16267;DHT22;8241;48.786;9.250;2023-07-24T13:16:44;22.20;99.90
16267;DHT22;8241;48.786;9.250;2023-07-24T13:19:11;22.20;99.90
16267;DHT22;8241;48.786;9.250;2023-07-24T13:21:38;22.20;99.90
16267;DHT22;8241;48.786;9.250;2023-07-24T13:24:06;22.30;99.90
16267;DHT22;8241;48.786;9.250;2023-07-24T13:26:33;22.40;99.90
16267;DHT22;8241;48.786;9.250;2023-07-24T13:29:01;22.50;99.90
16267;DHT22;8241;48.786;9.250;2023-07-24T13:31:30;22.60;99.90
16267;DHT22;8241;48.786;9.250;2023-07-24T13:33:57;22.80;99.90
16267;DHT22;8241;48.786;9.250;2023-07-24T13:36:24;23.00;99.90
16267;DHT22;8241;48.786;9.250;2023-07-24T13:38:51;23.20;99.90
16267;DHT22;8241;48.786;9.250;2023-07-24T13:41:19;23.20;99.90
16267;DHT22;8241;48.786;9.250;2023-07-24T13:43:47;23.20;99.90
16267;DHT22;8241;48.786;9.250;2023-07-24T13:46:14;23.20;99.90
16267;DHT22;8241;48.786;9.250;2023-07-24T13:48:41;23.20;99.00
16267;DHT22;8241;48.786;9.250;2023-07-24T13:51:07;23.30;99.10
16267;DHT22;8241;48.786;9.250;2023-07-24T13:53:34;23.30;97.90
16267;DHT22;8241;48.786;9.250;2023-07-24T13:56:01;23.20;97.50
16267;DHT22;8241;48.786;9.250;2023-07-24T13:58:29;23.40;96.70
16267;DHT22;8241;48.786;9.250;2023-07-24T14:00:56;23.50;96.70
16267;DHT22;8241;48.786;9.250;2023-07-24T14:03:23;23.80;96.60
16267;DHT22;8241;48.786;9.250;2023-07-24T14:05:55;24.60;95.60
16267;DHT22;8241;48.786;9.250;2023-07-24T14:08:22;25.30;94.30
16267;DHT22;8241;48.786;9.250;2023-07-24T14:10:49;25.80;94.00
16267;DHT22;8241;48.786;9.250;2023-07-24T14:13:16;26.50;92.00
16267;DHT22;8241;48.786;9.250;2023-07-24T14:15:45;27.10;90.50
16267;DHT22;8241;48.786;9.250;2023-07-24T14:18:12;27.00;90.80
16267;DHT22;8241;48.786;9.250;2023-07-24T14:20:38;26.60;91.00
16267;DHT22;8241;48.786;9.250;2023-07-24T14:23:06;26.40;90.70
16267;DHT22;8241;48.786;9.250;2023-07-24T14:25:33;26.30;91.00
16267;DHT22;8241;48.786;9.250;2023-07-24T14:28:00;26.10;91.40
16267;DHT22;8241;48.786;9.250;2023-07-24T14:30:27;25.90;91.40
16267;DHT22;8241;48.786;9.250;2023-07-24T14:32:55;25.70;91.20
16267;DHT22;8241;48.786;9.250;2023-07-24T14:35:22;25.40;91.60
16267;DHT22;8241;48.786;9.250;2023-07-24T14:37:49;25.10;92.20
16267;DHT22;8241;48.786;9.250;2023-07-24T14:40:16;25.00;92.20
16267;DHT22;8241;48.786;9.250;2023-07-24T14:42:43;24.80;92.60
16267;DHT22;8241;48.786;9.250;2023-07-24T14:45:10;24.60;92.90
16267;DHT22;8241;48.786;9.250;2023-07-24T14:47:37;24.50;93.20
16267;DHT22;8241;48.786;9.250;2023-07-24T14:50:07;24.60;93.00
16267;DHT22;8241;48.786;9.250;2023-07-24T14:52:34;24.60;93.30
16267;DHT22;8241;48.786;9.250;2023-07-24T14:55:01;24.70;93.40
16267;DHT22;8241;48.786;9.250;2023-07-24T14:57:28;24.60;93.50
16267;DHT22;8241;48.786;9.250;2023-07-24T14:59:55;24.50;92.60
16267;DHT22;8241;48.786;9.250;2023-07-24T15:02:22;24.40;92.30
16267;DHT22;8241;48.786;9.250;2023-07-24T15:04:48;24.30;92.10
16267;DHT22;8241;48.786;9.250;2023-07-24T15:07:17;24.20;92.10
16267;DHT22;8241;48.786;9.250;2023-07-24T15:09:44;24.10;92.40
16267;DHT22;8241;48.786;9.250;2023-07-24T15:12:11;24.00;92.60
16267;DHT22;8241;48.786;9.250;2023-07-24T15:14:38;24.00;92.50
16267;DHT22;8241;48.786;9.250;2023-07-24T15:17:04;24.10;92.50
16267;DHT22;8241;48.786;9.250;2023-07-24T15:19:32;24.20;92.40
16267;DHT22;8241;48.786;9.250;2023-07-24T15:21:59;24.30;92.70
16267;DHT22;8241;48.786;9.250;2023-07-24T15:24:27;24.40;92.50
16267;DHT22;8241;48.786;9.250;2023-07-24T15:26:54;24.40;92.60
16267;DHT22;8241;48.786;9.250;2023-07-24T15:29:21;24.30;93.20
16267;DHT22;8241;48.786;9.250;2023-07-24T15:31:48;24.20;92.80
16267;DHT22;8241;48.786;9.250;2023-07-24T15:34:15;24.00;93.10
16267;DHT22;8241;48.786;9.250;2023-07-24T15:36:42;23.90;93.10
16267;DHT22;8241;48.786;9.250;2023-07-24T15:39:08;23.80;93.20
16267;DHT22;8241;48.786;9.250;2023-07-24T15:41:36;23.80;93.20
16267;DHT22;8241;48.786;9.250;2023-07-24T15:44:03;23.70;93.40
16267;DHT22;8241;48.786;9.250;2023-07-24T15:46:30;23.50;93.90